Time;durP1;ratioP1;P1;durP2;ratioP2;P2;SDS_P1;SDS_P2;PMS_P1;PMS_P2;Temp;Humidity;BMP_temperature;BMP_pressure;BME280_temperature;BME280_humidity;BME280_pressure;Samples;Min_cycle;Max_cycle;Signal;HPM_P1;HPM_P2
2023/04/17 00:00:16;;;;;;;29.88;20.42;;;10.50;99.90;;;;;;6185653;23;20049;-93
2023/04/17 00:02:41;;;;;;;28.30;20.52;;;10.40;99.90;;;;;;6185567;23;20009;-93
2023/04/17 00:05:08;;;;;;;29.13;20.75;;;10.40;99.90;;;;;;6185387;23;20099;-93
2023/04/17 00:07:40;;;;;;;28.13;20.60;;;10.50;99.90;;;;;;6186769;23;20024;-93
2023/04/17 00:10:09;;;;;;;29.95;20.77;;;10.50;99.90;;;;;;6185831;23;20071;-93
2023/04/17 00:12:36;;;;;;;27.52;20.52;;;10.50;99.90;;;;;;6185801;23;20009;-94
2023/04/17 00:15:02;;;;;;;28.70;20.25;;;10.50;99.90;;;;;;6185900;23;20052;-93
2023/04/17 00:17:27;;;;;;;30.52;21.00;;;10.50;99.90;;;;;;6185649;23;20342;-93
2023/04/17 00:19:53;;;;;;;32.35;21.67;;;10.50;99.90;;;;;;6187021;23;20017;-93
2023/04/17 00:22:19;;;;;;;29.05;21.05;;;10.50;99.90;;;;;;6184983;23;20013;-93
2023/04/17 00:24:44;;;;;;;27.42;20.55;;;10.50;99.90;;;;;;6184763;23;20017;-92
2023/04/17 00:27:10;;;;;;;26.13;19.17;;;10.60;99.90;;;;;;6186797;23;20017;-93
2023/04/17 00:29:36;;;;;;;27.83;19.95;;;10.50;99.90;;;;;;6185183;23;20017;-93
2023/04/17 00:32:02;;;;;;;32.25;21.25;;;10.50;99.90;;;;;;6185222;23;20017;-94
2023/04/17 00:34:28;;;;;;;28.80;20.33;;;10.50;99.90;;;;;;6185605;23;20051;-93
2023/04/17 00:36:54;;;;;;;34.17;22.33;;;10.50;99.90;;;;;;6184831;23;20017;-93
2023/04/17 00:39:19;;;;;;;27.80;20.25;;;10.40;99.90;;;;;;6185113;23;20031;-93
2023/04/17 00:41:45;;;;;;;28.55;20.73;;;10.40;99.90;;;;;;6186810;23;20009;-93
2023/04/17 00:44:10;;;;;;;29.17;20.95;;;10.30;99.90;;;;;;6185222;23;20076;-93
2023/04/17 00:46:36;;;;;;;32.65;22.52;;;10.30;99.90;;;;;;6184837;23;20461;-93
2023/04/17 00:49:02;;;;;;;29.45;21.42;;;10.20;99.90;;;;;;6187198;23;20337;-93
2023/04/17 00:51:28;;;;;;;36.13;23.63;;;10.20;99.90;;;;;;6186355;23;20442;-92
2023/04/17 00:53:54;;;;;;;30.67;22.10;;;10.30;99.90;;;;;;6184436;23;20111;-92
2023/04/17 00:56:21;;;;;;;31.50;22.27;;;10.20;99.90;;;;;;6186379;23;20099;-92
2023/04/17 00:58:48;;;;;;;32.80;22.10;;;10.20;99.90;;;;;;6184712;23;20048;-92
2023/04/17 01:01:14;;;;;;;29.70;21.42;;;10.10;99.90;;;;;;6184367;23;20013;-92
2023/04/17 01:03:39;;;;;;;33.63;23.35;;;10.10;99.90;;;;;;6184524;23;20024;-91
2023/04/17 01:06:05;;;;;;;34.13;23.40;;;10.10;99.90;;;;;;6186275;23;20016;-91
2023/04/17 01:08:40;;;;;;;35.33;23.15;;;10.10;99.90;;;;;;6185711;23;20071;-92
2023/04/17 01:11:06;;;;;;;31.05;22.13;;;10.00;99.90;;;;;;6184925;23;20537;-93
2023/04/17 01:13:32;;;;;;;33.15;23.00;;;10.00;99.90;;;;;;6184590;23;20029;-93
2023/04/17 01:15:57;;;;;;;31.98;22.08;;;10.00;99.90;;;;;;6186176;23;20009;-93
2023/04/17 01:18:23;;;;;;;39.67;26.33;;;10.00;99.90;;;;;;6184835;23;20016;-92
2023/04/17 01:20:49;;;;;;;37.65;25.27;;;10.00;99.90;;;;;;6184315;23;20107;-92
2023/04/17 01:23:14;;;;;;;36.08;25.02;;;10.00;99.90;;;;;;6186352;23;20016;-93
2023/04/17 01:25:40;;;;;;;38.10;26.25;;;10.00;99.90;;;;;;6184808;23;20025;-93
2023/04/17 01:28:06;;;;;;;40.80;26.80;;;10.00;99.90;;;;;;6184961;23;20512;-93
2023/04/17 01:30:31;;;;;;;35.15;24.45;;;10.00;99.90;;;;;;6186331;23;20502;-93
2023/04/17 01:32:57;;;;;;;34.35;23.60;;;9.90;99.90;;;;;;6185583;23;20045;-93
2023/04/17 01:35:23;;;;;;;35.65;25.13;;;9.90;99.90;;;;;;6184665;23;20013;-93
2023/04/17 01:37:48;;;;;;;33.42;23.48;;;9.90;99.90;;;;;;6184779;23;20140;-93
2023/04/17 01:40:14;;;;;;;34.65;24.52;;;9.90;99.90;;;;;;6186415;23;20336;-93
2023/04/17 01:42:40;;;;;;;33.72;23.73;;;9.90;99.90;;;;;;6184341;23;20513;-93
2023/04/17 01:45:06;;;;;;;35.88;24.40;;;9.90;99.90;;;;;;6186080;23;20017;-94
2023/04/17 01:47:32;;;;;;;36.25;23.90;;;9.90;99.90;;;;;;6186447;23;20024;-94
2023/04/17 01:49:57;;;;;;;37.55;25.38;;;9.90;99.90;;;;;;6184838;23;20005;-93
2023/04/17 01:52:23;;;;;;;36.03;25.45;;;10.00;99.90;;;;;;6184515;23;20049;-94
2023/04/17 01:54:48;;;;;;;35.63;24.58;;;10.00;99.90;;;;;;6186121;23;20430;-93
2023/04/17 01:57:14;;;;;;;35.92;24.95;;;10.00;99.90;;;;;;6185893;23;20071;-92
2023/04/17 01:59:40;;;;;;;37.47;26.42;;;10.00;99.90;;;;;;6184063;23;20028;-93
2023/04/17 02:02:05;;;;;;;39.80;28.33;;;10.00;99.90;;;;;;6186461;23;20014;-92
2023/04/17 02:04:31;;;;;;;34.88;25.10;;;9.90;99.90;;;;;;6186674;23;20093;-94
2023/04/17 02:06:56;;;;;;;35.97;25.73;;;9.90;99.90;;;;;;6185696;23;20456;-94
2023/04/17 02:09:22;;;;;;;36.08;24.88;;;9.90;99.90;;;;;;6184631;23;20028;-93
2023/04/17 02:11:47;;;;;;;36.65;26.20;;;9.90;99.90;;;;;;6184592;23;20434;-93
2023/04/17 02:14:14;;;;;;;42.30;28.75;;;9.90;99.90;;;;;;6186870;23;20024;-93
2023/04/17 02:16:44;;;;;;;39.05;27.80;;;9.90;99.90;;;;;;6188375;23;20013;-94
2023/04/17 02:19:13;;;;;;;39.97;26.48;;;9.80;99.90;;;;;;6187523;23;20500;-93
2023/04/17 02:21:39;;;;;;;37.20;25.65;;;9.80;99.90;;;;;;6186473;23;20056;-93
2023/04/17 02:24:05;;;;;;;36.45;25.25;;;9.80;99.90;;;;;;6187847;23;20017;-93
2023/04/17 02:26:30;;;;;;;37.10;26.05;;;9.80;99.90;;;;;;6186472;23;20036;-94
2023/04/17 02:28:56;;;;;;;38.63;26.75;;;9.80;99.90;;;;;;6186235;23;20104;-94
2023/04/17 02:31:22;;;;;;;44.42;29.38;;;9.80;99.90;;;;;;6187974;23;20091;-93
2023/04/17 02:33:48;;;;;;;36.00;25.90;;;9.80;99.90;;;;;;6186385;23;20027;-93
2023/04/17 02:36:15;;;;;;;39.95;26.23;;;9.80;99.90;;;;;;6187012;23;20045;-92
2023/04/17 02:38:40;;;;;;;41.67;27.30;;;9.80;99.90;;;;;;6186139;23;20021;-92
2023/04/17 02:41:06;;;;;;;37.92;26.52;;;9.70;99.90;;;;;;6188310;23;20063;-92
2023/04/17 02:43:31;;;;;;;43.60;28.00;;;9.70;99.90;;;;;;6186272;23;20099;-93
2023/04/17 02:45:57;;;;;;;39.15;26.38;;;9.80;99.90;;;;;;6186272;23;20017;-93
2023/04/17 02:48:23;;;;;;;36.00;25.52;;;9.70;99.90;;;;;;6186369;23;20020;-92
2023/04/17 02:50:49;;;;;;;40.95;28.33;;;9.80;99.90;;;;;;6186164;23;20024;-92
2023/04/17 02:53:14;;;;;;;39.50;25.92;;;9.80;99.90;;;;;;6186336;23;20012;-92
2023/04/17 02:55:40;;;;;;;36.47;26.33;;;9.80;99.90;;;;;;6185994;23;20017;-92
2023/04/17 02:58:05;;;;;;;37.70;25.95;;;9.80;99.90;;;;;;6186863;23;20021;-93
2023/04/17 03:00:31;;;;;;;35.20;26.08;;;9.80;99.90;;;;;;6186022;23;20017;-93
2023/04/17 03:02:57;;;;;;;41.72;27.20;;;9.80;99.90;;;;;;6186575;23;20017;-94
2023/04/17 03:05:22;;;;;;;37.95;26.70;;;9.80;99.90;;;;;;6186666;23;20036;-92
2023/04/17 03:07:51;;;;;;;40.50;27.90;;;9.80;99.90;;;;;;6187245;23;20322;-93
2023/04/17 03:10:17;;;;;;;40.85;27.70;;;9.70;99.90;;;;;;6188062;23;20021;-93
2023/04/17 03:12:43;;;;;;;39.17;27.88;;;9.70;99.90;;;;;;6185860;23;20059;-93
2023/04/17 03:15:09;;;;;;;36.03;25.50;;;9.70;99.90;;;;;;6187779;23;20051;-92
2023/04/17 03:17:35;;;;;;;40.28;27.05;;;9.70;99.90;;;;;;6186103;23;20009;-92
2023/04/17 03:20:01;;;;;;;38.35;27.13;;;9.70;99.90;;;;;;6186252;23;20091;-92
2023/04/17 03:22:26;;;;;;;38.28;26.80;;;9.70;99.90;;;;;;6187191;23;20017;-93
2023/04/17 03:24:52;;;;;;;40.17;27.25;;;9.70;99.90;;;;;;6186326;23;20075;-94
2023/04/17 03:27:23;;;;;;;38.67;27.10;;;9.60;99.90;;;;;;6187765;23;20438;-93
2023/04/17 03:29:50;;;;;;;37.15;26.33;;;9.70;99.90;;;;;;6187344;23;20013;-92
2023/04/17 03:32:16;;;;;;;38.38;26.92;;;9.70;99.90;;;;;;6187627;23;20487;-93
2023/04/17 03:34:41;;;;;;;41.70;25.70;;;9.70;99.90;;;;;;6186796;23;20017;-93
2023/04/17 03:37:07;;;;;;;40.17;25.48;;;9.60;99.90;;;;;;6186407;23;20019;-93
2023/04/17 03:39:32;;;;;;;37.67;25.73;;;9.60;99.90;;;;;;6186173;23;20345;-93
2023/04/17 03:41:58;;;;;;;37.97;25.60;;;9.60;99.90;;;;;;6186177;23;20017;-93
2023/04/17 03:44:24;;;;;;;37.08;26.13;;;9.60;99.90;;;;;;6186550;23;20104;-94
2023/04/17 03:46:49;;;;;;;34.33;24.92;;;9.60;99.90;;;;;;6187718;23;20092;-93
2023/04/17 03:49:15;;;;;;;35.03;25.45;;;9.60;99.90;;;;;;6187470;23;20455;-92
2023/04/17 03:51:41;;;;;;;36.67;25.52;;;9.60;99.90;;;;;;6186104;23;20017;-93
2023/04/17 03:54:07;;;;;;;36.75;24.20;;;9.60;99.90;;;;;;6187892;23;20021;-93
2023/04/17 03:56:33;;;;;;;35.25;24.20;;;9.60;99.90;;;;;;6185435;23;20071;-93
2023/04/17 03:58:59;;;;;;;36.58;25.02;;;9.60;99.90;;;;;;6186329;23;20020;-93
2023/04/17 04:01:27;;;;;;;37.67;25.17;;;9.60;99.90;;;;;;6187634;23;20013;-94
2023/04/17 04:03:55;;;;;;;34.90;25.13;;;9.60;99.90;;;;;;6186587;23;20484;-93
2023/04/17 04:06:21;;;;;;;36.15;24.55;;;9.60;99.90;;;;;;6187460;23;20504;-92
2023/04/17 04:08:48;;;;;;;35.78;25.08;;;9.60;99.90;;;;;;6185842;23;20017;-91
2023/04/17 04:11:14;;;;;;;38.78;24.75;;;9.60;99.90;;;;;;6186902;23;20052;-92
2023/04/17 04:13:40;;;;;;;33.58;24.15;;;9.60;99.90;;;;;;6185600;23;20092;-93
2023/04/17 04:16:06;;;;;;;38.67;23.23;;;9.60;99.90;;;;;;6187810;23;20017;-95
2023/04/17 04:18:31;;;;;;;32.60;23.38;;;9.60;99.90;;;;;;6185616;23;20017;-93
2023/04/17 04:20:57;;;;;;;31.05;22.77;;;9.50;99.90;;;;;;6186185;23;20017;-95
2023/04/17 04:23:23;;;;;;;31.48;21.88;;;9.50;99.90;;;;;;6188172;23;20023;-96
2023/04/17 04:25:49;;;;;;;36.33;22.23;;;9.50;99.90;;;;;;6186411;23;20024;-95
2023/04/17 04:28:16;;;;;;;35.83;23.77;;;9.50;99.90;;;;;;6187674;23;20013;-95
2023/04/17 04:30:49;;;;;;;35.97;23.95;;;9.50;99.90;;;;;;6186344;23;20020;-90
2023/04/17 04:33:20;;;;;;;32.08;22.95;;;9.50;99.90;;;;;;6184350;23;20013;-90
2023/04/17 04:35:47;;;;;;;30.23;21.50;;;9.50;99.90;;;;;;6185969;23;20017;-90
2023/04/17 04:38:15;;;;;;;44.72;20.55;;;9.50;99.90;;;;;;6184168;23;20017;-90
2023/04/17 04:40:44;;;;;;;29.55;21.00;;;9.50;99.90;;;;;;6184173;23;20021;-90
2023/04/17 04:43:09;;;;;;;28.98;22.33;;;9.50;99.90;;;;;;6184173;23;20438;-90
2023/04/17 04:45:35;;;;;;;30.65;22.52;;;9.60;99.90;;;;;;6184476;23;20036;-93
2023/04/17 04:48:02;;;;;;;28.73;21.52;;;9.50;99.90;;;;;;6187502;23;20039;-94
2023/04/17 04:50:27;;;;;;;31.50;21.58;;;9.50;99.90;;;;;;6185517;23;20071;-93
2023/04/17 04:52:53;;;;;;;27.67;21.40;;;9.50;99.90;;;;;;6185081;23;20017;-93
2023/04/17 04:55:20;;;;;;;29.85;21.48;;;9.50;99.90;;;;;;6187167;23;20330;-93
2023/04/17 04:57:46;;;;;;;29.17;21.52;;;9.40;99.90;;;;;;6184896;23;20096;-94
2023/04/17 05:00:13;;;;;;;29.13;21.67;;;9.40;99.90;;;;;;6185392;23;20488;-94
2023/04/17 05:02:38;;;;;;;27.70;21.00;;;9.40;99.90;;;;;;6185308;23;20017;-93
2023/04/17 05:05:06;;;;;;;32.53;20.30;;;9.50;99.90;;;;;;6186905;23;20028;-93
2023/04/17 05:07:32;;;;;;;27.40;21.05;;;9.40;99.90;;;;;;6184697;23;20588;-93
2023/04/17 05:09:58;;;;;;;29.88;21.42;;;9.40;99.90;;;;;;6187119;23;20013;-93
2023/04/17 05:12:23;;;;;;;28.23;20.95;;;9.40;99.90;;;;;;6186966;23;20021;-93
2023/04/17 05:14:49;;;;;;;28.40;21.13;;;9.40;99.90;;;;;;6184951;23;20040;-93
2023/04/17 05:17:15;;;;;;;28.52;20.52;;;9.40;99.90;;;;;;6185238;23;20060;-93
2023/04/17 05:19:40;;;;;;;29.48;21.02;;;9.40;99.90;;;;;;6184784;23;20442;-93
2023/04/17 05:22:06;;;;;;;26.52;19.95;;;9.30;99.90;;;;;;6184808;23;20096;-93
2023/04/17 05:24:31;;;;;;;27.88;21.20;;;9.30;99.90;;;;;;6186710;23;20328;-92
2023/04/17 05:26:57;;;;;;;27.15;20.90;;;9.30;99.90;;;;;;6186869;23;20009;-93
2023/04/17 05:29:24;;;;;;;33.10;20.55;;;9.30;99.90;;;;;;6186311;23;20021;-93
2023/04/17 05:31:50;;;;;;;31.15;19.83;;;9.30;99.90;;;;;;6185123;23;20020;-93
2023/04/17 05:34:15;;;;;;;27.92;20.58;;;9.30;99.90;;;;;;6185009;23;20342;-94
2023/04/17 05:36:41;;;;;;;25.95;19.80;;;9.30;99.90;;;;;;6184834;23;20016;-93
2023/04/17 05:39:06;;;;;;;27.85;20.67;;;9.30;99.90;;;;;;6185114;23;20450;-93
2023/04/17 05:41:32;;;;;;;27.27;20.88;;;9.30;99.90;;;;;;6185446;23;20454;-93
2023/04/17 05:43:58;;;;;;;32.42;21.85;;;9.30;99.90;;;;;;6187381;23;20051;-93
2023/04/17 05:46:23;;;;;;;27.90;20.13;;;9.30;99.90;;;;;;6188745;23;20381;-93
2023/04/17 05:48:49;;;;;;;27.90;20.90;;;9.30;99.90;;;;;;6189929;23;20319;-92
2023/04/17 05:51:15;;;;;;;28.65;21.20;;;9.30;99.90;;;;;;6189700;23;20358;-93
2023/04/17 05:53:43;;;;;;;45.55;23.38;;;9.30;99.90;;;;;;6190083;23;20049;-93
2023/04/17 05:56:09;;;;;;;30.02;22.27;;;9.30;99.90;;;;;;6188840;23;20017;-93
2023/04/17 05:58:35;;;;;;;29.88;20.77;;;9.30;99.90;;;;;;6189014;23;20021;-93
2023/04/17 06:01:04;;;;;;;30.00;21.77;;;9.30;99.90;;;;;;6189183;23;20024;-93
2023/04/17 06:03:31;;;;;;;30.13;21.77;;;9.30;99.90;;;;;;6187034;23;20013;-93
2023/04/17 06:05:57;;;;;;;28.25;20.65;;;9.30;99.90;;;;;;6188641;23;20083;-92
2023/04/17 06:08:23;;;;;;;31.60;22.08;;;9.30;99.90;;;;;;6189407;23;20445;-93
2023/04/17 06:10:50;;;;;;;29.15;21.40;;;9.30;99.90;;;;;;6188852;23;20039;-92
2023/04/17 06:13:17;;;;;;;31.65;21.65;;;9.30;99.90;;;;;;6188508;23;20476;-92
2023/04/17 06:15:42;;;;;;;30.27;22.00;;;9.30;99.90;;;;;;6188976;23;20017;-92
2023/04/17 06:18:08;;;;;;;29.13;21.40;;;9.30;99.90;;;;;;6188583;23;20055;-93
2023/04/17 06:20:34;;;;;;;29.70;20.92;;;9.30;99.90;;;;;;6189551;23;20021;-93
2023/04/17 06:23:00;;;;;;;32.60;22.00;;;9.30;99.90;;;;;;6189095;23;20009;-93
2023/04/17 06:25:26;;;;;;;30.88;22.20;;;9.40;99.90;;;;;;6188133;23;20052;-92
2023/04/17 06:27:51;;;;;;;31.90;22.48;;;9.30;99.90;;;;;;6188181;23;20017;-93
2023/04/17 06:30:17;;;;;;;30.98;22.40;;;9.40;99.90;;;;;;6188653;23;20023;-93
2023/04/17 06:32:42;;;;;;;32.60;22.67;;;9.40;99.90;;;;;;6186471;23;20017;-93
2023/04/17 06:35:10;;;;;;;35.42;23.58;;;9.30;99.90;;;;;;6186703;23;20017;-92
2023/04/17 06:37:35;;;;;;;32.47;22.23;;;9.30;99.90;;;;;;6186317;23;20015;-94
2023/04/17 06:40:02;;;;;;;37.03;26.23;;;9.30;99.90;;;;;;6186913;23;20096;-94
2023/04/17 06:42:27;;;;;;;33.55;23.83;;;9.30;99.90;;;;;;6187956;23;20009;-93
2023/04/17 06:44:53;;;;;;;29.92;22.08;;;9.30;99.90;;;;;;6186977;23;20023;-91
2023/04/17 06:47:19;;;;;;;34.38;23.58;;;9.30;99.90;;;;;;6187266;23;20044;-94
2023/04/17 06:49:44;;;;;;;38.03;26.00;;;9.30;99.90;;;;;;6187155;23;20024;-93
2023/04/17 06:52:10;;;;;;;36.72;24.48;;;9.30;99.90;;;;;;6186894;23;20013;-94
2023/04/17 06:54:37;;;;;;;33.42;22.77;;;9.30;99.90;;;;;;6187372;23;20366;-94
2023/04/17 06:57:05;;;;;;;31.88;22.77;;;9.30;99.90;;;;;;6188295;23;20040;-94
2023/04/17 06:59:31;;;;;;;37.05;26.08;;;9.30;99.90;;;;;;6188468;23;20027;-95
2023/04/17 07:01:57;;;;;;;44.47;28.35;;;9.30;99.90;;;;;;6187192;23;20029;-94
2023/04/17 07:04:23;;;;;;;39.55;26.75;;;9.30;99.90;;;;;;6188892;23;20024;-95
2023/04/17 07:06:48;;;;;;;40.97;28.75;;;9.30;99.90;;;;;;6186938;23;20009;-94
2023/04/17 07:09:14;;;;;;;41.97;28.52;;;9.30;99.90;;;;;;6187279;23;20055;-94
2023/04/17 07:11:39;;;;;;;39.42;26.35;;;9.30;99.90;;;;;;6188368;23;20020;-93
2023/04/17 07:14:05;;;;;;;35.67;25.20;;;9.30;99.90;;;;;;6186717;23;20021;-94
2023/04/17 07:16:30;;;;;;;50.70;34.38;;;9.30;99.90;;;;;;6188645;23;20009;-94
2023/04/17 07:18:56;;;;;;;37.25;25.45;;;9.30;99.90;;;;;;6188634;23;20017;-93
2023/04/17 07:21:21;;;;;;;39.85;26.02;;;9.30;99.90;;;;;;6186334;23;20017;-95
2023/04/17 07:23:47;;;;;;;36.92;25.38;;;9.20;99.90;;;;;;6187145;23;20104;-95
2023/04/17 07:26:13;;;;;;;45.78;29.02;;;9.30;99.90;;;;;;6188815;23;20333;-94
2023/04/17 07:28:38;;;;;;;41.20;29.77;;;9.30;99.90;;;;;;6190376;23;20017;-93
2023/04/17 07:31:07;;;;;;;35.65;24.73;;;9.30;99.90;;;;;;6187513;23;20020;-94
2023/04/17 07:33:35;;;;;;;34.92;24.38;;;9.30;99.90;;;;;;6186668;23;20524;-94
2023/04/17 07:36:01;;;;;;;38.78;27.10;;;9.30;99.90;;;;;;6186554;23;20017;-93
2023/04/17 07:38:27;;;;;;;37.38;26.55;;;9.30;99.90;;;;;;6186898;23;20449;-93
2023/04/17 07:40:52;;;;;;;43.00;29.10;;;9.30;99.90;;;;;;6185445;23;20017;-92
2023/04/17 07:43:18;;;;;;;37.60;25.30;;;9.40;99.90;;;;;;6185264;23;20028;-92
2023/04/17 07:45:44;;;;;;;42.97;28.52;;;9.40;99.90;;;;;;6183836;23;20027;-92
2023/04/17 07:48:09;;;;;;;47.72;32.55;;;9.40;99.90;;;;;;6185726;23;20013;-91
2023/04/17 07:50:35;;;;;;;37.22;26.30;;;9.40;99.90;;;;;;6185765;23;20410;-92
2023/04/17 07:53:01;;;;;;;48.25;32.25;;;9.50;99.90;;;;;;6185826;23;20091;-92
2023/04/17 07:55:26;;;;;;;37.67;26.88;;;9.50;99.90;;;;;;6183768;23;20040;-92
2023/04/17 07:57:52;;;;;;;46.10;31.42;;;9.50;99.90;;;;;;6185083;23;20057;-93
2023/04/17 08:00:18;;;;;;;40.40;27.25;;;9.50;99.90;;;;;;6187637;23;20547;-92
2023/04/17 08:02:44;;;;;;;44.78;30.15;;;9.50;99.90;;;;;;6184363;23;20020;-92
2023/04/17 08:05:10;;;;;;;39.42;26.98;;;9.60;99.90;;;;;;6182738;23;20052;-92
2023/04/17 08:07:36;;;;;;;43.20;30.85;;;9.60;99.90;;;;;;6181520;23;20016;-92
2023/04/17 08:10:03;;;;;;;50.65;34.25;;;9.60;99.90;;;;;;6182684;23;20013;-91
2023/04/17 08:12:29;;;;;;;50.25;32.75;;;9.60;99.90;;;;;;6186049;23;20395;-92
2023/04/17 08:14:54;;;;;;;47.85;31.95;;;9.70;99.90;;;;;;6187690;23;20048;-92
2023/04/17 08:17:22;;;;;;;42.78;31.27;;;9.70;99.90;;;;;;6185988;23;20045;-92
2023/04/17 08:19:56;;;;;;;42.30;30.40;;;9.70;99.90;;;;;;6187325;23;20021;-93
2023/04/17 08:22:23;;;;;;;46.58;33.50;;;9.80;99.90;;;;;;6184936;23;20024;-93
2023/04/17 08:24:49;;;;;;;43.10;31.00;;;9.80;99.90;;;;;;6183573;23;20017;-92
2023/04/17 08:27:15;;;;;;;43.25;32.92;;;9.90;99.90;;;;;;6183294;23;20485;-90
2023/04/17 08:29:42;;;;;;;41.72;31.88;;;9.90;99.90;;;;;;6180717;23;20013;-91
2023/04/17 08:32:08;;;;;;;44.70;33.65;;;10.00;99.90;;;;;;6180890;23;20067;-92
2023/04/17 08:34:34;;;;;;;42.75;31.27;;;10.10;99.90;;;;;;6183310;23;20052;-92
2023/04/17 08:37:00;;;;;;;39.65;30.10;;;10.10;99.90;;;;;;6182731;23;20280;-91
2023/04/17 08:39:26;;;;;;;42.78;32.35;;;10.20;99.90;;;;;;6182661;23;20021;-91
2023/04/17 08:41:59;;;;;;;39.95;30.17;;;10.30;99.90;;;;;;6185696;23;20067;-91
2023/04/17 08:44:25;;;;;;;39.20;31.10;;;10.30;99.90;;;;;;6184351;23;20031;-91
2023/04/17 08:46:54;;;;;;;40.47;30.70;;;10.40;99.90;;;;;;6185059;23;20446;-93
2023/04/17 08:49:20;;;;;;;37.22;30.70;;;10.40;99.90;;;;;;6186140;23;20055;-92
2023/04/17 08:51:46;;;;;;;39.97;30.48;;;10.50;99.90;;;;;;6183119;23;20087;-92
2023/04/17 08:54:11;;;;;;;35.83;29.35;;;10.60;99.90;;;;;;6181990;23;20083;-92
2023/04/17 08:56:37;;;;;;;35.00;29.33;;;10.60;99.90;;;;;;6181579;23;20079;-92
2023/04/17 08:59:03;;;;;;;37.72;29.42;;;10.70;99.90;;;;;;6186559;23;20095;-92
2023/04/17 09:01:29;;;;;;;35.28;29.83;;;10.70;99.90;;;;;;6185219;23;20040;-93
2023/04/17 09:03:55;;;;;;;34.13;28.48;;;10.80;99.90;;;;;;6185140;23;20013;-92
2023/04/17 09:06:21;;;;;;;38.00;29.02;;;10.80;99.90;;;;;;6186962;23;20013;-93
2023/04/17 09:08:59;;;;;;;38.33;28.27;;;10.90;99.90;;;;;;6184649;23;20077;-93
2023/04/17 09:11:25;;;;;;;34.30;28.77;;;11.00;99.90;;;;;;6183700;23;20024;-93
2023/04/17 09:13:51;;;;;;;33.58;27.90;;;11.10;99.90;;;;;;6183915;23;20028;-93
2023/04/17 09:16:20;;;;;;;35.20;28.42;;;11.10;99.90;;;;;;6183100;23;20028;-92
2023/04/17 09:18:47;;;;;;;32.83;27.80;;;11.10;99.90;;;;;;6183850;23;20021;-93
2023/04/17 09:21:19;;;;;;;33.03;28.25;;;11.20;99.90;;;;;;6185626;23;20025;-92
2023/04/17 09:23:57;;;;;;;33.42;28.40;;;11.30;99.90;;;;;;6186007;23;20051;-95
2023/04/17 09:26:25;;;;;;;34.00;27.38;;;11.30;99.90;;;;;;6186746;23;20159;-95
2023/04/17 09:29:10;;;;;;;31.52;27.15;;;11.40;99.90;;;;;;6185997;23;20051;-95
2023/04/17 09:31:41;;;;;;;33.42;27.65;;;11.50;99.90;;;;;;6185156;23;20103;-95
2023/04/17 09:34:10;;;;;;;32.88;28.10;;;11.60;99.90;;;;;;6185654;23;20020;-95
2023/04/17 09:36:37;;;;;;;34.63;28.52;;;11.60;99.90;;;;;;6186536;23;20083;-94
2023/04/17 09:39:23;;;;;;;30.75;26.00;;;11.70;99.90;;;;;;6189971;23;20025;-93
2023/04/17 09:41:49;;;;;;;29.15;24.40;;;11.80;99.90;;;;;;6185089;23;20075;-94
2023/04/17 09:44:26;;;;;;;28.60;25.52;;;11.90;99.90;;;;;;6187879;23;20017;-87
2023/04/17 09:46:53;;;;;;;27.77;23.65;;;11.90;99.90;;;;;;6184133;23;20021;-88
2023/04/17 09:49:28;;;;;;;27.02;23.90;;;12.00;99.90;;;;;;6184047;23;20549;-88
2023/04/17 09:51:55;;;;;;;26.27;22.95;;;12.10;99.90;;;;;;6182792;23;20017;-88
2023/04/17 09:54:22;;;;;;;26.63;23.08;;;12.20;99.90;;;;;;6185554;23;20024;-89
2023/04/17 09:56:54;;;;;;;26.00;22.02;;;12.30;99.90;;;;;;6182204;23;20016;-88
2023/04/17 09:59:22;;;;;;;26.23;22.80;;;12.40;99.90;;;;;;6186062;23;20350;-92
2023/04/17 10:01:49;;;;;;;25.38;20.20;;;12.40;99.90;;;;;;6187846;23;20060;-95
2023/04/17 10:04:15;;;;;;;25.27;21.65;;;12.50;99.90;;;;;;6187632;23;20017;-95
2023/04/17 10:06:42;;;;;;;25.92;19.70;;;12.60;99.90;;;;;;6188056;23;20036;-95
2023/04/17 10:09:07;;;;;;;25.25;20.45;;;12.70;99.90;;;;;;6187671;23;20025;-95
2023/04/17 10:12:01;;;;;;;28.60;19.52;;;12.80;99.90;;;;;;6188903;23;20017;-93
2023/04/17 10:14:35;;;;;;;22.10;17.80;;;12.90;99.90;;;;;;6185006;23;20021;-94
2023/04/17 10:17:25;;;;;;;27.02;19.52;;;12.90;99.90;;;;;;6204884;23;20045;-93
2023/04/17 10:19:51;;;;;;;22.67;18.67;;;13.00;99.90;;;;;;6187039;23;20440;-91
2023/04/17 10:22:16;;;;;;;20.92;17.48;;;13.10;99.90;;;;;;6187630;23;20013;-91
2023/04/17 10:24:50;;;;;;;21.05;18.45;;;13.20;99.90;;;;;;6188575;23;20021;-91
2023/04/17 10:27:25;;;;;;;23.17;18.50;;;13.20;99.90;;;;;;6189735;23;20013;-91
2023/04/17 10:30:01;;;;;;;19.83;16.27;;;13.30;99.90;;;;;;6189920;23;20048;-92
2023/04/17 10:32:31;;;;;;;19.20;16.98;;;13.30;99.90;;;;;;6186924;23;20522;-92
2023/04/17 10:34:59;;;;;;;20.23;15.13;;;13.40;99.90;;;;;;6186214;23;20024;-90
2023/04/17 10:37:47;;;;;;;17.88;14.88;;;13.40;99.90;;;;;;6194446;23;20013;-91
2023/04/17 10:40:23;;;;;;;18.95;15.60;;;13.50;99.90;;;;;;6185155;23;20020;-91
2023/04/17 10:43:15;;;;;;;20.52;16.67;;;13.60;99.90;;;;;;6185235;23;20382;-90
2023/04/17 10:46:12;;;;;;;18.58;15.90;;;13.60;99.90;;;;;;6184395;23;20013;-91
2023/04/17 10:48:50;;;;;;;20.60;16.27;;;13.60;99.90;;;;;;6184938;23;20021;-91
2023/04/17 10:51:22;;;;;;;19.60;17.27;;;13.70;99.90;;;;;;6184292;23;20017;-90
2023/04/17 10:54:00;;;;;;;21.15;17.15;;;13.80;99.90;;;;;;6186510;23;20067;-91
2023/04/17 10:56:37;;;;;;;19.42;15.57;;;13.80;99.90;;;;;;6187131;23;20044;-90
2023/04/17 10:59:11;;;;;;;19.90;15.98;;;13.90;99.90;;;;;;6179499;23;20025;-90
2023/04/17 11:01:39;;;;;;;16.77;14.68;;;13.90;99.90;;;;;;6184494;23;20101;-89
2023/04/17 11:04:05;;;;;;;17.15;15.02;;;14.00;99.90;;;;;;6185003;23;20021;-90
2023/04/17 11:06:41;;;;;;;17.33;15.15;;;14.10;99.90;;;;;;6183874;23;20017;-90
2023/04/17 11:09:09;;;;;;;19.15;14.38;;;14.20;99.90;;;;;;6186163;23;20453;-90
2023/04/17 11:11:40;;;;;;;19.52;16.70;;;14.30;99.90;;;;;;6184908;23;20092;-90
2023/04/17 11:14:16;;;;;;;19.48;14.65;;;14.40;99.90;;;;;;6184127;23;20023;-90
2023/04/17 11:16:43;;;;;;;19.25;14.88;;;14.40;99.90;;;;;;6185298;23;20035;-89
2023/04/17 11:19:20;;;;;;;17.65;11.93;;;14.50;99.90;;;;;;6185485;23;20017;-90
2023/04/17 11:21:48;;;;;;;17.05;14.75;;;14.60;99.90;;;;;;6184995;23;20048;-90
2023/04/17 11:24:22;;;;;;;16.88;12.90;;;14.60;99.90;;;;;;6184598;23;20020;-90
2023/04/17 11:26:47;;;;;;;15.25;12.80;;;14.80;99.90;;;;;;6185897;23;20016;-89
2023/04/17 11:29:14;;;;;;;16.45;13.13;;;14.80;99.90;;;;;;6185171;23;20342;-91
2023/04/17 11:31:40;;;;;;;18.52;13.25;;;14.90;99.90;;;;;;6184843;23;20009;-91
2023/04/17 11:34:07;;;;;;;17.70;13.60;;;14.90;99.90;;;;;;6186035;23;20508;-90
2023/04/17 11:36:32;;;;;;;18.67;13.18;;;15.00;99.90;;;;;;6184638;23;20084;-92
2023/04/17 11:38:58;;;;;;;14.82;12.35;;;15.10;99.90;;;;;;6185357;23;20541;-92
2023/04/17 11:41:34;;;;;;;17.40;12.25;;;15.20;99.90;;;;;;6185108;23;20369;-92
2023/04/17 11:44:00;;;;;;;15.43;12.00;;;15.30;99.90;;;;;;6184709;23;20017;-92
2023/04/17 11:46:26;;;;;;;17.42;13.57;;;15.30;99.80;;;;;;6185428;23;20402;-93
2023/04/17 11:48:52;;;;;;;18.67;12.15;;;15.40;99.70;;;;;;6184878;23;20020;-93
2023/04/17 11:51:18;;;;;;;16.95;12.10;;;15.50;99.80;;;;;;6187664;23;20005;-93
2023/04/17 11:53:50;;;;;;;15.10;12.80;;;15.40;99.20;;;;;;6188592;23;20023;-93
2023/04/17 11:56:17;;;;;;;17.40;12.93;;;15.60;99.90;;;;;;6185154;23;20013;-93
2023/04/17 11:58:54;;;;;;;17.40;12.88;;;15.60;99.70;;;;;;6185348;23;20280;-93
2023/04/17 12:01:23;;;;;;;15.88;12.18;;;15.60;99.80;;;;;;6186709;23;20107;-94
2023/04/17 12:03:50;;;;;;;14.50;12.27;;;15.70;99.90;;;;;;6185292;23;20017;-94
2023/04/17 12:06:16;;;;;;;15.02;12.50;;;15.80;99.90;;;;;;6186991;23;20464;-92
2023/04/17 12:08:50;;;;;;;16.65;12.30;;;15.90;99.90;;;;;;6186294;23;20017;-94
2023/04/17 12:11:24;;;;;;;16.10;11.27;;;15.90;99.90;;;;;;6187857;23;20071;-93
2023/04/17 12:13:54;;;;;;;15.85;11.43;;;15.90;99.90;;;;;;6185540;23;20338;-90
2023/04/17 12:16:21;;;;;;;16.35;11.15;;;15.90;98.90;;;;;;6185625;23;20080;-95
2023/04/17 12:18:47;;;;;;;14.15;11.70;;;15.90;97.90;;;;;;6186505;23;20088;-91
2023/04/17 12:21:13;;;;;;;16.67;12.13;;;15.90;98.70;;;;;;6184085;23;20056;-92
2023/04/17 12:23:39;;;;;;;18.15;11.80;;;16.00;99.30;;;;;;6183535;23;20415;-93
2023/04/17 12:26:05;;;;;;;16.13;12.82;;;16.10;99.20;;;;;;6186697;23;20096;-93
2023/04/17 12:28:30;;;;;;;14.20;11.38;;;16.10;99.20;;;;;;6184802;23;20063;-90
2023/04/17 12:30:56;;;;;;;13.40;11.80;;;16.20;99.50;;;;;;6184959;23;20051;-91
2023/04/17 12:33:21;;;;;;;13.30;11.68;;;16.20;98.70;;;;;;6184409;23;20067;-90